Time;durP1;ratioP1;P1;durP2;ratioP2;P2;SDS_P1;SDS_P2;PMS_P1;PMS_P2;Temp;Humidity;BMP_temperature;BMP_pressure;BME280_temperature;BME280_humidity;BME280_pressure;Samples;Min_cycle;Max_cycle;Signal;HPM_P1;HPM_P2
2022/04/22 00:01:11;;;;;;;17.05;10.57;;;9.30;99.90;;;;;;4954508;28;20032;-44
2022/04/22 00:03:37;;;;;;;15.40;11.55;;;9.30;99.90;;;;;;4954738;28;20019;-48
2022/04/22 00:06:03;;;;;;;17.48;11.60;;;9.30;99.90;;;;;;4977782;23;20098;-49
2022/04/22 00:08:29;;;;;;;15.73;11.48;;;9.40;99.90;;;;;;4973394;28;20046;-50
2022/04/22 00:13:39;;;;;;;17.20;11.40;;;9.30;99.90;;;;;;4974447;28;20397;-44
2022/04/22 00:16:06;;;;;;;17.48;11.70;;;9.30;99.90;;;;;;4973331;28;20118;-45
2022/04/22 00:18:32;;;;;;;17.60;12.43;;;9.30;99.90;;;;;;4974108;28;20023;-45
2022/04/22 00:20:57;;;;;;;15.30;11.43;;;9.20;99.90;;;;;;4974466;28;20033;-42
2022/04/22 00:23:23;;;;;;;20.02;12.98;;;9.20;99.90;;;;;;4974092;28;20023;-47
2022/04/22 00:25:48;;;;;;;19.95;12.07;;;9.20;99.90;;;;;;4974647;28;20019;-47
2022/04/22 00:28:14;;;;;;;19.20;12.10;;;9.20;99.90;;;;;;4973551;28;20535;-48
2022/04/22 00:30:40;;;;;;;19.48;13.18;;;9.20;99.90;;;;;;4973732;28;20041;-50
2022/04/22 00:33:06;;;;;;;17.95;12.35;;;9.10;99.90;;;;;;4973647;28;20026;-48
2022/04/22 00:35:31;;;;;;;18.63;12.30;;;9.10;99.90;;;;;;4974052;28;20026;-44
2022/04/22 00:37:58;;;;;;;19.15;12.93;;;9.00;99.90;;;;;;4973077;28;20046;-42
2022/04/22 00:40:23;;;;;;;21.05;12.73;;;9.00;99.90;;;;;;4973812;28;20081;-44
2022/04/22 00:42:50;;;;;;;21.40;12.65;;;9.00;99.90;;;;;;4973647;28;20479;-45
2022/04/22 00:45:18;;;;;;;15.68;13.23;;;8.90;99.90;;;;;;4973383;28;20128;-44
2022/04/22 00:47:43;;;;;;;19.80;13.02;;;8.90;99.90;;;;;;4971697;28;20035;-44
2022/04/22 00:50:09;;;;;;;18.20;12.77;;;8.90;99.90;;;;;;4973154;28;20038;-46
2022/04/22 00:52:34;;;;;;;20.90;12.70;;;8.90;99.90;;;;;;4973406;28;20041;-45
2022/04/22 00:55:00;;;;;;;17.95;12.18;;;8.90;99.90;;;;;;4973360;28;20331;-43
2022/04/22 00:57:26;;;;;;;22.58;14.20;;;8.90;99.90;;;;;;4972850;28;20023;-44
2022/04/22 00:59:52;;;;;;;23.02;14.10;;;8.90;99.90;;;;;;4973015;28;20033;-43
2022/04/22 01:02:17;;;;;;;26.48;14.02;;;8.80;99.90;;;;;;4973125;28;20022;-45
2022/04/22 01:10:12;;;;;;;22.30;14.32;;;8.80;99.90;;;;;;4973126;28;20178;-45
2022/04/22 01:12:37;;;;;;;21.08;14.73;;;8.80;99.90;;;;;;4972171;28;20140;-47
2022/04/22 01:15:04;;;;;;;18.95;14.82;;;8.70;99.90;;;;;;4971746;28;20556;-45
2022/04/22 01:17:31;;;;;;;22.50;14.32;;;8.70;99.90;;;;;;4972879;28;20384;-47
2022/04/22 01:19:57;;;;;;;24.08;14.77;;;8.70;99.90;;;;;;4972776;28;20031;-49
2022/04/22 01:22:23;;;;;;;20.77;14.48;;;8.70;99.90;;;;;;4972958;28;20363;-45
2022/04/22 01:24:57;;;;;;;25.15;15.13;;;8.60;99.90;;;;;;4972976;28;20483;-50
2022/04/22 01:27:27;;;;;;;25.23;15.93;;;8.60;99.90;;;;;;4972608;28;20027;-49
2022/04/22 01:29:52;;;;;;;22.38;14.52;;;8.60;99.90;;;;;;4973194;28;20031;-44
2022/04/22 01:32:18;;;;;;;21.70;14.90;;;8.60;99.90;;;;;;4972975;28;20081;-46
2022/04/22 01:34:43;;;;;;;21.83;13.90;;;8.60;99.90;;;;;;4972969;28;20034;-44
2022/04/22 01:37:09;;;;;;;22.20;15.07;;;8.50;99.90;;;;;;4972689;28;20035;-44
2022/04/22 01:39:35;;;;;;;25.13;14.48;;;8.50;99.90;;;;;;4971826;28;20031;-43
2022/04/22 01:42:00;;;;;;;27.80;17.20;;;8.50;99.90;;;;;;4972832;28;20078;-46
2022/04/22 01:44:26;;;;;;;22.30;14.95;;;8.50;99.90;;;;;;4972929;28;20031;-45
2022/04/22 01:46:52;;;;;;;30.17;15.52;;;8.50;99.90;;;;;;4972591;28;20570;-47
2022/04/22 01:49:18;;;;;;;25.33;15.38;;;8.40;99.90;;;;;;4972500;28;20108;-44
2022/04/22 01:51:44;;;;;;;24.65;16.50;;;8.40;99.90;;;;;;4972976;28;20038;-45
2022/04/22 01:54:10;;;;;;;22.30;15.15;;;8.30;99.90;;;;;;4972615;28;20030;-45
2022/04/22 01:56:35;;;;;;;22.30;15.98;;;8.30;99.90;;;;;;4972468;28;20077;-47
2022/04/22 01:59:01;;;;;;;25.55;16.25;;;8.30;99.90;;;;;;4972167;28;20125;-45
2022/04/22 02:01:27;;;;;;;26.50;16.92;;;8.20;99.90;;;;;;4972348;28;20161;-45
2022/04/22 02:03:52;;;;;;;24.30;14.35;;;8.20;99.90;;;;;;4972926;28;20026;-41
2022/04/22 02:06:18;;;;;;;24.75;15.60;;;8.20;99.90;;;;;;4972443;28;20031;-46
2022/04/22 02:08:44;;;;;;;28.15;16.98;;;8.20;99.90;;;;;;4972293;28;20640;-46
2022/04/22 02:11:09;;;;;;;23.75;15.32;;;8.10;99.90;;;;;;4972522;28;20034;-49
2022/04/22 02:13:36;;;;;;;21.48;15.70;;;8.10;99.90;;;;;;4971139;28;20019;-47
2022/04/22 02:16:03;;;;;;;28.27;16.52;;;8.10;99.90;;;;;;4972317;28;20415;-44
2022/04/22 02:18:29;;;;;;;22.27;15.70;;;8.10;99.90;;;;;;4971788;28;20027;-46
2022/04/22 02:20:56;;;;;;;25.13;15.25;;;8.20;99.90;;;;;;4972357;28;20027;-48
2022/04/22 02:23:21;;;;;;;27.52;16.95;;;8.10;99.90;;;;;;4973635;28;20505;-44
2022/04/22 02:25:47;;;;;;;29.15;17.77;;;8.10;99.90;;;;;;4974510;28;20105;-45
2022/04/22 02:30:56;;;;;;;30.67;18.20;;;8.20;99.90;;;;;;4976081;28;20038;-45
2022/04/22 02:33:22;;;;;;;27.00;18.33;;;8.10;99.90;;;;;;4974463;28;20038;-46
2022/04/22 02:35:47;;;;;;;26.88;17.95;;;8.10;99.90;;;;;;4975643;28;20479;-45
2022/04/22 02:38:13;;;;;;;28.98;18.38;;;8.10;99.90;;;;;;4975152;28;20058;-44
2022/04/22 02:46:07;;;;;;;26.17;17.83;;;8.00;99.90;;;;;;4975508;28;20030;-47
2022/04/22 02:48:32;;;;;;;32.58;19.65;;;8.00;99.90;;;;;;4975067;28;20031;-43
2022/04/22 02:50:58;;;;;;;33.15;17.80;;;8.00;99.90;;;;;;4975551;28;20080;-45
2022/04/22 02:53:23;;;;;;;29.63;19.20;;;8.00;99.90;;;;;;4975490;28;20031;-46
2022/04/22 02:55:50;;;;;;;30.98;19.95;;;8.00;99.90;;;;;;4975408;28;20106;-44
2022/04/22 02:58:17;;;;;;;31.33;19.15;;;7.90;99.90;;;;;;4974994;28;20027;-44
2022/04/22 03:00:43;;;;;;;31.50;19.65;;;7.90;99.90;;;;;;4975284;28;20023;-45
2022/04/22 03:03:08;;;;;;;31.95;18.55;;;7.90;99.90;;;;;;4975270;28;20491;-45
2022/04/22 03:05:34;;;;;;;33.80;20.58;;;7.90;99.90;;;;;;4975170;28;20094;-44
2022/04/22 03:08:01;;;;;;;35.10;20.65;;;7.90;99.90;;;;;;4974618;28;20133;-44
2022/04/22 03:10:27;;;;;;;29.95;19.05;;;7.80;99.90;;;;;;4975213;28;20449;-44
2022/04/22 03:12:52;;;;;;;34.40;20.52;;;7.80;99.90;;;;;;4975151;28;20162;-46
2022/04/22 03:15:18;;;;;;;36.22;20.40;;;7.80;99.90;;;;;;4974956;28;20027;-45
2022/04/22 03:17:43;;;;;;;30.83;20.70;;;7.80;99.90;;;;;;4974554;28;20106;-45
2022/04/22 03:20:10;;;;;;;26.88;18.80;;;7.80;99.90;;;;;;4974912;28;20041;-46
2022/04/22 03:22:36;;;;;;;31.95;20.88;;;7.80;99.90;;;;;;4975044;28;20031;-46
2022/04/22 03:25:02;;;;;;;34.72;20.73;;;7.80;99.90;;;;;;4975048;28;20086;-47
2022/04/22 03:27:28;;;;;;;30.08;19.92;;;7.80;99.90;;;;;;4974559;28;20034;-47
2022/04/22 03:29:53;;;;;;;36.25;21.40;;;7.80;99.90;;;;;;4974816;28;20031;-46
2022/04/22 03:32:19;;;;;;;39.60;21.45;;;7.80;99.90;;;;;;4974638;28;20035;-45
2022/04/22 03:34:44;;;;;;;36.40;20.88;;;7.80;99.90;;;;;;4973982;28;20031;-44
2022/04/22 03:37:10;;;;;;;36.03;20.77;;;7.80;99.90;;;;;;4974218;28;20049;-47
2022/04/22 03:39:35;;;;;;;34.17;22.08;;;7.80;99.90;;;;;;4974590;28;20114;-44
2022/04/22 03:42:01;;;;;;;33.65;21.00;;;7.80;99.90;;;;;;4974540;28;20427;-44
2022/04/22 03:44:27;;;;;;;34.20;22.25;;;7.70;99.90;;;;;;4973145;28;20491;-46
2022/04/22 03:46:52;;;;;;;33.38;20.27;;;7.70;99.90;;;;;;4974142;28;20123;-43
2022/04/22 03:49:18;;;;;;;30.67;21.00;;;7.70;99.90;;;;;;4974364;28;20161;-44
2022/04/22 03:51:44;;;;;;;36.60;22.83;;;7.80;99.90;;;;;;4973138;28;20031;-44
2022/04/22 03:54:09;;;;;;;39.58;23.38;;;7.80;99.90;;;;;;4974198;28;20059;-45
2022/04/22 03:59:19;;;;;;;31.40;20.83;;;7.80;99.90;;;;;;4974029;28;20092;-45
2022/04/22 04:01:44;;;;;;;36.05;21.15;;;7.70;99.90;;;;;;4974298;28;20027;-44
2022/04/22 04:04:11;;;;;;;34.78;21.05;;;7.80;99.90;;;;;;4974090;28;20029;-45
2022/04/22 04:06:36;;;;;;;34.67;20.50;;;7.70;99.90;;;;;;4973879;28;20030;-44
2022/04/22 04:17:14;;;;;;;33.13;21.40;;;7.70;99.90;;;;;;4973544;28;20034;-46
2022/04/22 04:25:09;;;;;;;36.22;21.40;;;7.70;99.90;;;;;;4974113;28;20118;-42
2022/04/22 04:27:36;;;;;;;36.67;21.52;;;7.70;99.90;;;;;;4972128;28;20113;-46
2022/04/22 04:30:04;;;;;;;39.42;21.63;;;7.70;99.90;;;;;;4973806;28;20085;-46
2022/04/22 04:32:30;;;;;;;34.47;21.75;;;7.80;99.90;;;;;;4972588;28;20022;-46
2022/04/22 04:34:55;;;;;;;36.70;22.42;;;7.80;99.90;;;;;;4973554;28;20475;-48
2022/04/22 04:37:21;;;;;;;38.30;21.02;;;7.80;99.90;;;;;;4971828;28;20486;-45
2022/04/22 04:39:47;;;;;;;33.72;21.48;;;7.80;99.90;;;;;;4973620;28;20536;-46
2022/04/22 04:42:12;;;;;;;35.03;20.67;;;7.80;99.90;;;;;;4973332;28;20019;-45
2022/04/22 04:44:38;;;;;;;36.03;22.60;;;7.80;99.90;;;;;;4973452;28;20486;-46
2022/04/22 04:47:04;;;;;;;40.90;23.38;;;7.80;99.90;;;;;;4972881;28;20102;-46
2022/04/22 04:49:29;;;;;;;36.00;21.25;;;7.80;99.90;;;;;;4971988;28;20153;-45
2022/04/22 04:51:57;;;;;;;36.47;22.42;;;7.90;99.90;;;;;;4973319;28;20297;-48
2022/04/22 04:54:23;;;;;;;34.22;21.67;;;7.90;99.90;;;;;;4973488;28;20050;-47
2022/04/22 04:56:50;;;;;;;30.92;20.98;;;7.90;99.90;;;;;;4973048;28;20034;-48
2022/04/22 04:59:16;;;;;;;33.45;20.13;;;8.10;99.90;;;;;;4973072;28;20601;-45
2022/04/22 05:01:42;;;;;;;35.67;21.08;;;8.20;99.90;;;;;;4973135;28;20330;-46
2022/04/22 05:04:07;;;;;;;30.33;21.33;;;8.30;99.90;;;;;;4973056;28;20015;-46
2022/04/22 05:06:33;;;;;;;32.90;21.40;;;8.40;99.90;;;;;;4972849;28;20162;-46
2022/04/22 05:08:59;;;;;;;31.90;20.90;;;8.50;99.90;;;;;;4972963;28;20157;-44
2022/04/22 05:11:24;;;;;;;35.75;21.50;;;8.40;99.90;;;;;;4973014;28;20082;-45
2022/04/22 05:13:49;;;;;;;32.80;19.85;;;8.50;99.90;;;;;;4973142;28;20035;-45
2022/04/22 05:16:15;;;;;;;30.50;19.83;;;8.50;99.90;;;;;;4973114;28;20097;-47
2022/04/22 05:18:41;;;;;;;31.15;20.40;;;8.50;99.90;;;;;;4972329;28;20122;-46
2022/04/22 05:21:07;;;;;;;26.70;18.30;;;8.60;99.90;;;;;;4972846;28;20479;-45
2022/04/22 05:23:33;;;;;;;32.97;20.67;;;8.70;99.90;;;;;;4972798;28;20031;-44
2022/04/22 05:26:01;;;;;;;28.05;19.63;;;8.80;99.90;;;;;;4972811;28;20030;-46
2022/04/22 05:28:27;;;;;;;33.72;20.38;;;8.90;99.90;;;;;;4972421;28;20513;-52
2022/04/22 05:33:37;;;;;;;28.08;18.83;;;9.30;99.90;;;;;;4972319;28;20037;-45
2022/04/22 05:36:04;;;;;;;27.65;19.52;;;9.70;99.90;;;;;;4972697;28;20027;-44
2022/04/22 05:38:30;;;;;;;25.95;19.40;;;9.90;99.90;;;;;;4972216;28;20483;-50
2022/04/22 05:40:55;;;;;;;24.75;17.80;;;10.00;99.90;;;;;;4972719;28;20133;-47
2022/04/22 05:43:21;;;;;;;25.95;19.45;;;10.00;99.90;;;;;;4972566;28;20029;-44
2022/04/22 05:45:46;;;;;;;25.83;18.48;;;10.00;99.90;;;;;;4972590;28;20029;-47
2022/04/22 05:48:12;;;;;;;24.05;17.35;;;10.00;99.90;;;;;;4972289;28;20031;-46
2022/04/22 05:50:37;;;;;;;24.77;17.63;;;10.00;99.90;;;;;;4972796;28;20077;-45
2022/04/22 05:53:03;;;;;;;26.55;17.27;;;10.10;99.90;;;;;;4972623;28;20026;-44
2022/04/22 05:55:29;;;;;;;26.90;18.17;;;10.10;99.90;;;;;;4972491;28;20399;-46
2022/04/22 05:57:55;;;;;;;24.80;16.48;;;10.00;99.90;;;;;;4972749;28;20022;-48
2022/04/22 06:00:23;;;;;;;25.58;17.90;;;10.10;99.90;;;;;;4976466;28;20030;-46
2022/04/22 06:02:50;;;;;;;27.15;17.73;;;10.00;99.90;;;;;;4976499;28;20027;-47
2022/04/22 06:05:17;;;;;;;28.13;17.85;;;9.90;99.90;;;;;;4974992;28;20113;-46
2022/04/22 06:07:44;;;;;;;25.92;17.30;;;10.00;99.90;;;;;;4980394;23;20459;-47
2022/04/22 06:12:56;;;;;;;22.48;16.60;;;10.20;99.90;;;;;;4957166;29;20089;-43
2022/04/22 06:15:22;;;;;;;25.88;15.95;;;10.30;99.90;;;;;;4957049;28;20027;-42
2022/04/22 06:17:47;;;;;;;21.52;15.20;;;10.50;99.90;;;;;;4951445;28;20452;-44
2022/04/22 06:20:14;;;;;;;22.95;16.08;;;10.60;99.90;;;;;;4949081;28;20124;-42
2022/04/22 06:22:40;;;;;;;21.15;15.10;;;10.70;99.90;;;;;;4937450;29;20506;-42
2022/04/22 06:25:08;;;;;;;20.55;14.60;;;10.90;99.90;;;;;;4936782;29;20103;-43
2022/04/22 06:27:35;;;;;;;20.70;13.60;;;10.90;99.90;;;;;;4936500;28;20508;-44
2022/04/22 06:30:05;;;;;;;18.45;14.27;;;11.10;99.90;;;;;;4937426;29;20032;-45
2022/04/22 06:32:31;;;;;;;22.08;14.10;;;11.10;99.90;;;;;;4937493;29;20547;-46
2022/04/22 06:34:57;;;;;;;18.88;13.23;;;11.00;99.90;;;;;;4952046;28;20035;-44
2022/04/22 06:37:23;;;;;;;19.77;14.20;;;11.10;99.90;;;;;;4936988;29;20452;-46
2022/04/22 06:48:02;;;;;;;15.88;12.55;;;12.00;99.90;;;;;;4936689;29;20034;-43
2022/04/22 06:50:28;;;;;;;14.77;11.82;;;12.30;99.90;;;;;;4937169;29;20055;-43
2022/04/22 06:52:54;;;;;;;16.50;12.68;;;12.60;99.90;;;;;;4937209;29;20107;-50
2022/04/22 06:55:21;;;;;;;15.45;11.88;;;12.70;99.90;;;;;;4936609;29;20507;-46
2022/04/22 06:57:49;;;;;;;15.77;10.98;;;12.60;99.90;;;;;;4937024;28;20032;-45
2022/04/22 07:00:15;;;;;;;14.85;10.85;;;12.70;99.90;;;;;;4937298;29;20399;-50
2022/04/22 07:02:41;;;;;;;16.90;11.15;;;12.60;99.90;;;;;;4937114;28;20090;-45
2022/04/22 07:05:09;;;;;;;13.52;10.43;;;12.60;99.80;;;;;;4937160;29;20024;-44
2022/04/22 07:07:34;;;;;;;15.13;10.30;;;12.50;99.90;;;;;;4936719;29;20028;-42
2022/04/22 07:10:00;;;;;;;13.02;10.40;;;12.40;99.90;;;;;;4935666;29;20403;-44
2022/04/22 07:12:27;;;;;;;36.05;23.05;;;12.30;99.90;;;;;;4936963;29;20087;-45
2022/04/22 07:15:03;;;;;;;15.68;11.88;;;12.50;99.90;;;;;;4936945;29;20106;-45
2022/04/22 07:17:33;;;;;;;13.07;9.32;;;12.40;99.90;;;;;;4935439;29;20035;-44
2022/04/22 07:20:00;;;;;;;14.10;9.70;;;12.60;99.80;;;;;;4937299;29;20122;-42
2022/04/22 07:22:27;;;;;;;13.23;9.23;;;12.70;99.90;;;;;;4937018;29;20016;-44
2022/04/22 07:24:53;;;;;;;11.85;9.35;;;12.70;99.40;;;;;;4936945;29;20026;-45
2022/04/22 07:27:30;;;;;;;13.40;9.82;;;12.60;99.70;;;;;;4936453;29;20031;-43
2022/04/22 07:29:58;;;;;;;11.60;9.90;;;12.70;99.40;;;;;;4936649;29;20042;-44
2022/04/22 07:32:24;;;;;;;13.23;10.27;;;12.40;99.50;;;;;;4936722;29;20020;-43
2022/04/22 07:34:50;;;;;;;14.25;9.45;;;12.60;99.80;;;;;;4936642;29;20027;-41
2022/04/22 07:37:16;;;;;;;13.10;9.35;;;12.90;99.40;;;;;;4936248;29;20075;-44
2022/04/22 07:39:41;;;;;;;10.65;8.82;;;12.90;98.80;;;;;;4936644;28;20115;-44
2022/04/22 07:42:08;;;;;;;11.55;9.00;;;13.20;98.80;;;;;;4936323;29;20407;-46
2022/04/22 07:47:24;;;;;;;11.32;8.27;;;13.30;98.10;;;;;;4938056;29;20039;-42
2022/04/22 07:49:51;;;;;;;13.43;8.70;;;13.70;97.40;;;;;;4936374;29;20034;-45
2022/04/22 07:52:16;;;;;;;10.75;8.43;;;13.80;97.30;;;;;;4936207;29;20023;-43
2022/04/22 07:54:42;;;;;;;9.52;7.63;;;14.00;97.30;;;;;;4936112;29;20038;-47
2022/04/22 07:57:08;;;;;;;12.75;8.63;;;14.20;96.60;;;;;;4935895;29;20028;-43
2022/04/22 07:59:34;;;;;;;10.57;8.57;;;14.70;95.60;;;;;;4935979;29;20094;-41
2022/04/22 08:01:59;;;;;;;15.60;8.52;;;15.10;95.10;;;;;;4936046;29;20107;-43
2022/04/22 08:04:28;;;;;;;9.80;7.43;;;15.10;94.60;;;;;;4935930;29;20114;-44
2022/04/22 08:06:54;;;;;;;11.20;7.18;;;15.80;94.20;;;;;;4935296;29;20050;-42
2022/04/22 08:09:19;;;;;;;8.95;7.55;;;16.40;93.00;;;;;;4934636;29;20028;-44
2022/04/22 08:11:45;;;;;;;10.32;7.85;;;17.10;91.80;;;;;;4935681;29;20514;-46
2022/04/22 08:14:13;;;;;;;11.15;8.05;;;17.00;91.50;;;;;;4936005;29;20028;-44
2022/04/22 08:16:39;;;;;;;8.60;7.30;;;16.70;90.60;;;;;;4933870;29;20053;-43
2022/04/22 08:19:05;;;;;;;8.05;7.22;;;16.70;91.90;;;;;;4933483;29;20597;-42
2022/04/22 08:21:33;;;;;;;13.25;7.70;;;17.30;90.30;;;;;;4949818;28;20036;-41
2022/04/22 08:23:59;;;;;;;9.20;7.97;;;18.00;88.80;;;;;;4935434;29;20396;-43
2022/04/22 08:26:25;;;;;;;8.15;6.97;;;17.40;87.90;;;;;;4935448;29;20024;-44
2022/04/22 08:28:51;;;;;;;7.53;6.75;;;17.20;89.90;;;;;;4950301;28;20040;-46
2022/04/22 08:31:17;;;;;;;8.65;6.70;;;17.40;89.00;;;;;;4935754;29;20028;-43
2022/04/22 08:33:45;;;;;;;8.07;7.28;;;16.90;89.60;;;;;;4935051;29;20032;-45
2022/04/22 08:36:11;;;;;;;9.82;7.80;;;17.10;89.30;;;;;;4934850;29;20111;-45
2022/04/22 08:38:37;;;;;;;7.47;6.78;;;17.50;87.80;;;;;;4934706;29;20031;-43
2022/04/22 08:41:03;;;;;;;9.23;7.53;;;17.40;87.90;;;;;;4933717;29;20058;-48
2022/04/22 08:43:30;;;;;;;9.52;7.00;;;16.90;88.20;;;;;;4949230;28;20020;-46
2022/04/22 08:45:55;;;;;;;13.65;7.70;;;16.90;88.60;;;;;;4933939;29;20034;-43
2022/04/22 08:51:08;;;;;;;9.25;7.15;;;16.20;89.50;;;;;;4935062;29;20039;-44
2022/04/22 08:53:35;;;;;;;8.52;7.47;;;16.60;90.10;;;;;;4934925;29;20023;-43
2022/04/22 08:56:02;;;;;;;8.43;7.40;;;17.10;89.90;;;;;;4935093;29;20032;-43
2022/04/22 08:58:29;;;;;;;8.02;7.32;;;16.90;89.10;;;;;;4934334;29;20110;-45
2022/04/22 09:00:59;;;;;;;7.50;6.68;;;16.80;89.40;;;;;;4933677;29;20130;-42
2022/04/22 09:03:28;;;;;;;7.90;7.07;;;16.90;89.60;;;;;;4934847;29;20396;-43
2022/04/22 09:05:58;;;;;;;9.75;7.63;;;17.30;86.30;;;;;;4934870;29;20020;-45
2022/04/22 09:08:28;;;;;;;7.70;6.95;;;16.80;87.80;;;;;;4934118;29;20051;-47
2022/04/22 09:11:01;;;;;;;9.52;8.18;;;16.50;88.10;;;;;;4934858;29;20484;-44
2022/04/22 09:13:32;;;;;;;10.57;7.32;;;16.20;90.10;;;;;;4934738;29;20403;-44
2022/04/22 09:15:59;;;;;;;8.07;7.15;;;15.80;90.60;;;;;;4934962;29;20444;-47
2022/04/22 09:18:29;;;;;;;9.75;7.60;;;16.40;90.00;;;;;;4933761;29;20106;-44
2022/04/22 09:20:56;;;;;;;8.65;7.32;;;16.30;88.90;;;;;;4934678;29;20427;-42
2022/04/22 09:23:23;;;;;;;39.70;27.08;;;16.50;89.00;;;;;;4934496;29;20058;-44
2022/04/22 09:25:49;;;;;;;8.02;7.18;;;16.70;88.60;;;;;;4934701;29;20024;-44
2022/04/22 09:28:15;;;;;;;10.98;8.25;;;16.50;87.80;;;;;;4934537;29;20115;-44
2022/04/22 09:30:41;;;;;;;7.88;6.53;;;16.60;89.20;;;;;;4934426;29;20063;-44
2022/04/22 09:33:12;;;;;;;7.00;6.30;;;17.00;87.90;;;;;;4933726;29;20027;-45
2022/04/22 09:42:38;;;;;;;9.60;6.63;;;17.10;88.40;;;;;;4952940;28;20023;-44
2022/04/22 09:43:51;;;;;;;6.78;5.70;;;16.80;88.50;;;;;;4934453;29;20551;-43
2022/04/22 09:46:30;;;;;;;8.88;5.75;;;17.00;87.10;;;;;;4934390;29;20039;-48
2022/04/22 09:48:56;;;;;;;7.00;6.05;;;17.10;85.80;;;;;;4933705;29;20415;-45
2022/04/22 09:51:27;;;;;;;6.68;5.95;;;16.90;87.10;;;;;;4934290;29;20030;-45
2022/04/22 09:54:19;;;;;;;7.45;5.65;;;16.90;86.30;;;;;;4934262;29;20024;-47
2022/04/22 09:56:58;;;;;;;9.35;6.05;;;16.70;86.30;;;;;;4933690;29;20048;-52
2022/04/22 09:59:26;;;;;;;6.20;5.32;;;16.90;86.40;;;;;;4933818;29;20043;-46
2022/04/22 10:01:52;;;;;;;5.63;5.13;;;17.00;86.00;;;;;;4934427;28;20028;-44
2022/04/22 10:04:20;;;;;;;8.48;5.30;;;17.10;86.80;;;;;;4933929;29;20034;-42
2022/04/22 10:06:46;;;;;;;5.88;5.30;;;17.10;85.80;;;;;;4933767;29;20026;-43
2022/04/22 10:09:16;;;;;;;6.65;5.95;;;17.40;86.90;;;;;;4934300;29;20023;-44
2022/04/22 10:11:43;;;;;;;8.45;5.68;;;17.20;84.00;;;;;;4934259;29;20051;-44
2022/04/22 10:14:10;;;;;;;6.18;5.60;;;17.30;85.10;;;;;;4934188;29;20075;-44
2022/04/22 10:16:36;;;;;;;4.95;4.45;;;17.40;84.10;;;;;;4933890;29;20484;-43
2022/04/22 10:19:03;;;;;;;6.25;5.43;;;17.30;85.30;;;;;;4933551;29;20087;-44
2022/04/22 10:21:29;;;;;;;7.10;5.80;;;17.00;83.70;;;;;;4948865;28;20055;-45
2022/04/22 10:23:56;;;;;;;8.35;5.60;;;17.00;85.50;;;;;;4948587;28;20682;-48
2022/04/22 10:26:22;;;;;;;7.18;5.20;;;17.10;84.40;;;;;;4933782;29;20028;-45
2022/04/22 10:28:48;;;;;;;8.13;6.28;;;17.00;84.60;;;;;;4933268;29;20399;-44
2022/04/22 10:31:15;;;;;;;6.40;5.60;;;16.90;83.70;;;;;;4934016;29;20032;-44
2022/04/22 10:33:45;;;;;;;81.88;58.55;;;16.90;84.80;;;;;;4934090;29;20068;-47
2022/04/22 10:36:16;;;;;;;22.98;17.05;;;17.10;85.40;;;;;;4934100;29;20403;-45
2022/04/22 10:38:45;;;;;;;18.05;15.05;;;17.30;85.00;;;;;;4933256;29;20123;-43
2022/04/22 10:41:16;;;;;;;11.50;6.35;;;17.20;84.40;;;;;;4933961;29;20055;-41
2022/04/22 10:43:42;;;;;;;5.57;4.90;;;17.30;83.10;;;;;;4934035;29;20022;-45
2022/04/22 10:49:39;;;;;;;6.18;5.57;;;17.40;83.20;;;;;;4937781;29;20054;-42
2022/04/22 10:52:15;;;;;;;5.25;4.75;;;17.10;83.10;;;;;;4937941;29;20028;-44
2022/04/22 10:54:52;;;;;;;6.35;5.43;;;17.10;83.90;;;;;;4937436;29;20038;-45
2022/04/22 10:57:20;;;;;;;5.88;5.38;;;17.20;83.30;;;;;;4936985;29;20098;-45
2022/04/22 11:00:02;;;;;;;7.32;4.97;;;17.10;83.00;;;;;;4935477;29;20051;-44
2022/04/22 11:02:32;;;;;;;8.43;5.20;;;17.00;84.50;;;;;;4934814;29;20026;-46
2022/04/22 11:05:19;;;;;;;6.30;5.22;;;17.10;83.30;;;;;;4936224;29;20476;-44
2022/04/22 11:07:51;;;;;;;7.13;5.28;;;17.00;83.70;;;;;;4917405;29;20451;-47
2022/04/22 11:10:21;;;;;;;5.75;5.25;;;17.20;83.00;;;;;;4917762;29;20052;-43
2022/04/22 11:12:55;;;;;;;7.15;5.55;;;17.30;83.20;;;;;;4924970;29;20036;-42
2022/04/22 11:15:51;;;;;;;7.70;5.07;;;17.30;82.80;;;;;;4931852;29;20496;-44
2022/04/22 11:18:17;;;;;;;8.63;5.40;;;17.40;82.70;;;;;;4931353;29;20040;-45
2022/04/22 11:20:45;;;;;;;5.25;4.60;;;17.50;81.60;;;;;;4936004;29;20488;-43
2022/04/22 11:23:14;;;;;;;6.00;4.80;;;17.40;81.90;;;;;;4936954;29;20030;-44
2022/04/22 11:25:41;;;;;;;6.68;4.50;;;17.30;80.80;;;;;;4936211;29;20094;-45
2022/04/22 11:28:08;;;;;;;6.63;4.32;;;17.40;81.40;;;;;;4935520;29;20028;-44
2022/04/22 11:30:33;;;;;;;4.35;3.95;;;17.60;81.10;;;;;;4936662;29;20027;-45
2022/04/22 11:33:11;;;;;;;8.55;4.38;;;17.60;79.80;;;;;;4936412;29;20028;-47
2022/04/22 11:35:37;;;;;;;7.70;4.70;;;17.60;80.40;;;;;;4935850;29;20103;-43
2022/04/22 11:38:04;;;;;;;4.18;3.88;;;17.70;79.80;;;;;;4935350;29;20031;-45
2022/04/22 11:40:37;;;;;;;5.65;5.15;;;17.80;80.20;;;;;;4936177;29;20035;-42
2022/04/22 11:43:10;;;;;;;7.00;5.85;;;17.70;80.20;;;;;;4936157;29;20472;-44
2022/04/22 11:45:39;;;;;;;31.75;22.73;;;17.70;79.30;;;;;;4936931;29;20020;-43
2022/04/22 11:48:09;;;;;;;55.70;37.50;;;17.80;80.70;;;;;;4936536;29;20299;-43
2022/04/22 11:50:42;;;;;;;5.25;4.75;;;17.80;79.70;;;;;;4936598;29;20421;-43
2022/04/22 11:53:16;;;;;;;4.88;4.47;;;17.80;78.30;;;;;;4936620;29;20023;-43
2022/04/22 11:55:43;;;;;;;6.40;4.53;;;17.70;77.90;;;;;;4941435;29;20123;-46
2022/04/22 11:58:15;;;;;;;5.68;4.20;;;17.80;79.70;;;;;;4944298;28;20455;-46
2022/04/22 12:06:18;;;;;;;4.85;4.30;;;17.80;77.60;;;;;;4943487;29;20054;-44
2022/04/22 12:09:00;;;;;;;6.80;4.60;;;17.80;78.30;;;;;;4940073;29;20113;-47
2022/04/22 12:11:26;;;;;;;7.13;4.07;;;17.70;77.80;;;;;;4935623;29;20515;-44
2022/04/22 12:13:53;;;;;;;5.70;4.47;;;17.70;78.30;;;;;;4935795;29;20050;-45
2022/04/22 12:16:26;;;;;;;4.57;3.97;;;17.90;78.90;;;;;;4935518;29;20557;-45
2022/04/22 12:18:56;;;;;;;4.90;4.18;;;18.00;79.00;;;;;;4935052;28;20169;-44
2022/04/22 12:21:27;;;;;;;5.03;4.20;;;18.10;77.30;;;;;;4935517;29;20023;-48
2022/04/22 12:24:04;;;;;;;8.48;4.25;;;18.30;77.70;;;;;;4935936;29;20050;-46
2022/04/22 12:26:34;;;;;;;4.45;3.75;;;18.30;77.00;;;;;;4935404;29;20072;-44
2022/04/22 12:29:00;;;;;;;6.88;4.68;;;18.20;77.10;;;;;;4935085;29;20499;-46
2022/04/22 12:31:27;;;;;;;5.15;4.13;;;18.20;77.40;;;;;;4935105;29;20031;-44
2022/04/22 12:34:04;;;;;;;6.10;4.00;;;18.20;77.40;;;;;;4934855;29;20043;-49
2022/04/22 12:36:33;;;;;;;4.75;3.90;;;18.30;77.50;;;;;;4935177;29;20031;-48
2022/04/22 12:38:59;;;;;;;5.22;4.43;;;18.40;76.70;;;;;;4949231;28;20024;-50
2022/04/22 12:41:25;;;;;;;4.55;4.15;;;18.30;76.00;;;;;;4935022;29;20070;-43
2022/04/22 12:43:53;;;;;;;5.90;3.95;;;18.20;76.30;;;;;;4935482;29;20048;-44
2022/04/22 12:52:19;;;;;;;5.68;4.07;;;18.30;75.70;;;;;;4934964;29;20083;-45
2022/04/22 12:54:47;;;;;;;4.40;3.97;;;18.30;77.00;;;;;;4935088;29;20504;-45
2022/04/22 12:57:25;;;;;;;7.43;4.50;;;18.40;75.80;;;;;;4934720;29;20499;-46
2022/04/22 12:59:55;;;;;;;4.50;4.10;;;18.40;75.30;;;;;;4935017;29;20034;-44
2022/04/22 13:02:34;;;;;;;9.75;4.43;;;18.40;75.30;;;;;;4934843;29;20492;-43
2022/04/22 13:05:02;;;;;;;4.78;4.32;;;18.30;75.50;;;;;;4934730;29;20559;-46
2022/04/22 13:07:45;;;;;;;5.82;4.38;;;18.30;75.30;;;;;;4934370;29;20036;-45
2022/04/22 13:10:15;;;;;;;4.35;3.63;;;18.30;75.90;;;;;;4935003;29;20061;-44
2022/04/22 13:12:44;;;;;;;5.18;3.80;;;18.40;76.10;;;;;;4934972;29;20031;-44
2022/04/22 13:15:19;;;;;;;5.18;3.97;;;18.40;75.90;;;;;;4934634;29;20024;-48
2022/04/22 13:17:49;;;;;;;5.53;4.05;;;18.50;74.60;;;;;;4934183;29;20059;-51
2022/04/22 13:20:19;;;;;;;5.70;4.10;;;18.60;75.10;;;;;;4934560;29;20052;-46
2022/04/22 13:22:45;;;;;;;7.28;4.65;;;18.70;74.10;;;;;;4935185;29;20174;-43
2022/04/22 13:25:12;;;;;;;4.75;3.70;;;18.70;74.00;;;;;;4935080;29;20043;-47
2022/04/22 13:27:39;;;;;;;6.05;3.90;;;18.70;74.50;;;;;;4934170;28;20024;-43
2022/04/22 13:30:05;;;;;;;5.60;4.15;;;18.70;74.20;;;;;;4934240;29;20030;-46
2022/04/22 13:32:31;;;;;;;5.18;3.78;;;18.70;73.70;;;;;;4934386;29;20083;-46
2022/04/22 13:34:57;;;;;;;8.52;4.10;;;18.70;74.60;;;;;;4934082;29;20032;-49
2022/04/22 13:37:22;;;;;;;4.38;3.97;;;18.80;75.70;;;;;;4934245;29;20047;-45
2022/04/22 13:39:48;;;;;;;3.67;3.17;;;19.00;73.30;;;;;;4934465;29;20023;-44
2022/04/22 13:42:13;;;;;;;4.10;3.70;;;19.10;74.60;;;;;;4934199;29;20071;-44
2022/04/22 13:52:52;;;;;;;3.70;3.40;;;19.00;72.40;;;;;;4934129;29;20034;-43
2022/04/22 13:55:18;;;;;;;25.92;20.83;;;18.90;71.90;;;;;;4934083;29;20028;-49
2022/04/22 13:57:43;;;;;;;24.55;15.82;;;18.90;72.70;;;;;;4933646;29;20466;-47
2022/04/22 14:00:10;;;;;;;14.38;10.55;;;19.00;73.10;;;;;;4934242;29;20027;-47